Time;durP1;ratioP1;P1;durP2;ratioP2;P2;SDS_P1;SDS_P2;PMS_P1;PMS_P2;Temp;Humidity;BMP_temperature;BMP_pressure;BME280_temperature;BME280_humidity;BME280_pressure;Samples;Min_cycle;Max_cycle;Signal;HPM_P1;HPM_P2
2023/04/15 00:00:34;;;;;;;12.57;8.10;;;;;;;8.01;72.90;100708.31;4961393;28;20030;-95
2023/04/15 00:03:01;;;;;;;12.70;6.72;;;;;;;7.97;72.77;100715.09;4967136;28;20029;-95
2023/04/15 00:05:26;;;;;;;11.38;6.72;;;;;;;7.95;72.68;100713.28;4968342;28;20040;-96
2023/04/15 00:07:52;;;;;;;9.98;6.22;;;;;;;7.88;73.25;100708.72;4964496;28;20027;-96
2023/04/15 00:10:17;;;;;;;12.80;7.47;;;;;;;7.86;73.00;100707.81;4967175;28;20033;-94
2023/04/15 00:12:43;;;;;;;10.80;6.65;;;;;;;7.81;72.96;100702.47;4966638;28;20027;-95
2023/04/15 00:15:09;;;;;;;10.57;6.70;;;;;;;7.81;73.08;100707.66;4966029;28;20400;-95
2023/04/15 00:17:34;;;;;;;15.25;7.57;;;;;;;7.79;72.91;100705.03;4966396;28;20037;-95
2023/04/15 00:20:00;;;;;;;13.70;8.38;;;;;;;7.75;73.02;100710.94;4967983;28;20030;-96
2023/04/15 00:22:26;;;;;;;11.30;7.50;;;;;;;7.74;72.69;100714.34;4966880;28;20037;-96
2023/04/15 00:24:52;;;;;;;11.07;7.43;;;;;;;7.72;73.19;100705.66;4966101;28;20030;-96
2023/04/15 00:27:18;;;;;;;12.82;7.05;;;;;;;7.71;73.12;100710.78;4965750;28;20034;-96
2023/04/15 00:29:43;;;;;;;12.23;8.02;;;;;;;7.68;73.53;100703.78;4966875;28;20042;-96
2023/04/15 00:32:08;;;;;;;11.93;7.82;;;;;;;7.64;73.29;100707.97;4965814;28;20093;-95
2023/04/15 00:34:34;;;;;;;11.63;7.78;;;;;;;7.62;73.22;100706.19;4966552;28;20030;-95
2023/04/15 00:36:59;;;;;;;13.05;8.88;;;;;;;7.61;73.34;100704.41;4966478;28;20181;-96
2023/04/15 00:39:25;;;;;;;12.80;7.82;;;;;;;7.59;73.40;100703.47;4965554;28;20487;-96
2023/04/15 00:41:51;;;;;;;10.68;7.72;;;;;;;7.59;73.02;100699.19;4984590;28;20026;-96
2023/04/15 00:44:17;;;;;;;15.73;8.38;;;;;;;7.56;73.71;100703.38;4965066;28;20050;-96
2023/04/15 00:46:44;;;;;;;10.48;7.50;;;;;;;7.53;73.51;100708.44;4964488;28;20018;-96
2023/04/15 00:49:10;;;;;;;13.32;7.88;;;;;;;7.50;73.66;100704.03;4981020;28;20030;-95
2023/04/15 00:51:35;;;;;;;15.70;8.90;;;;;;;7.50;73.69;100706.63;4965570;28;20030;-96
2023/04/15 00:54:06;;;;;;;13.02;8.02;;;;;;;7.46;73.68;100712.56;4983083;28;20153;-95
2023/04/15 00:56:36;;;;;;;14.50;8.25;;;;;;;7.41;73.75;100714.09;4966943;28;20034;-95
2023/04/15 00:59:02;;;;;;;13.52;8.80;;;;;;;7.38;73.58;100712.28;4965881;28;20124;-95
2023/04/15 01:01:28;;;;;;;12.73;8.75;;;;;;;7.35;73.84;100708.72;4964851;28;20480;-95
2023/04/15 01:03:57;;;;;;;15.63;8.90;;;;;;;7.33;73.98;100706.06;4966846;28;20026;-95
2023/04/15 01:06:23;;;;;;;11.77;8.50;;;;;;;7.32;73.56;100706.91;4967327;28;20109;-96
2023/04/15 01:08:48;;;;;;;17.77;8.73;;;;;;;7.28;73.81;100703.28;4965779;28;20034;-95
2023/04/15 01:11:14;;;;;;;15.85;9.18;;;;;;;7.28;73.44;100705.03;4967816;28;20045;-95
2023/04/15 01:13:40;;;;;;;13.65;8.57;;;;;;;7.25;73.35;100699.72;4976948;28;20033;-95
2023/04/15 01:16:07;;;;;;;12.65;8.20;;;;;;;7.23;73.78;100706.59;4963220;28;20038;-96
2023/04/15 01:18:33;;;;;;;12.40;8.30;;;;;;;7.20;73.55;100703.88;4961168;28;20412;-96
2023/04/15 01:21:03;;;;;;;12.27;8.30;;;;;;;7.14;73.81;100708.03;4963576;28;20035;-96
2023/04/15 01:23:29;;;;;;;15.95;9.10;;;;;;;7.11;74.07;100702.72;4963352;28;20559;-95
2023/04/15 01:25:55;;;;;;;13.05;8.93;;;;;;;7.05;74.35;100705.09;4981340;28;20030;-94
2023/04/15 01:28:20;;;;;;;13.27;8.55;;;;;;;7.01;74.40;100710.09;4980102;28;20703;-95
2023/04/15 01:30:46;;;;;;;11.15;8.32;;;;;;;6.95;74.41;100709.06;4979796;28;20030;-94
2023/04/15 01:33:12;;;;;;;11.70;8.20;;;;;;;6.92;74.56;100705.47;4978421;28;20570;-95
2023/04/15 01:35:37;;;;;;;11.10;8.07;;;;;;;6.87;74.89;100704.44;4963033;28;20027;-94
2023/04/15 01:38:07;;;;;;;12.88;8.45;;;;;;;6.81;74.87;100706.78;4962914;28;20030;-93
2023/04/15 01:40:33;;;;;;;11.95;8.50;;;;;;;6.79;74.94;100707.63;4980385;28;20488;-94
2023/04/15 01:43:00;;;;;;;13.35;7.95;;;;;;;6.78;75.17;100713.63;4980370;28;20026;-95
2023/04/15 01:45:26;;;;;;;12.93;8.27;;;;;;;6.78;75.48;100712.75;4979974;28;20117;-94
2023/04/15 01:47:51;;;;;;;12.18;8.27;;;;;;;6.75;75.40;100716.13;4963209;28;20456;-94
2023/04/15 01:50:17;;;;;;;12.45;8.35;;;;;;;6.71;74.77;100709.06;4963225;28;20547;-95
2023/04/15 01:52:43;;;;;;;14.07;8.85;;;;;;;6.67;75.28;100707.16;4977311;28;20026;-95
2023/04/15 01:55:10;;;;;;;13.15;8.07;;;;;;;6.66;74.83;100713.16;4961518;28;20033;-94
2023/04/15 01:57:35;;;;;;;13.23;8.80;;;;;;;6.63;75.57;100704.41;4962775;28;20022;-95
2023/04/15 02:00:02;;;;;;;16.95;9.07;;;;;;;6.61;75.64;100707.81;4962330;28;20491;-95
2023/04/15 02:02:28;;;;;;;11.25;8.48;;;;;;;6.60;75.53;100702.59;4960613;28;20054;-95
2023/04/15 02:04:53;;;;;;;12.95;9.00;;;;;;;6.57;75.79;100699.88;4978635;28;20498;-94
2023/04/15 02:07:18;;;;;;;15.52;9.10;;;;;;;6.56;76.11;100696.44;4962253;28;20576;-95
2023/04/15 02:09:45;;;;;;;16.98;9.32;;;;;;;6.53;76.43;100691.16;4962414;28;20039;-94
2023/04/15 02:12:10;;;;;;;16.25;8.93;;;;;;;6.51;76.20;100702.25;4961061;28;20018;-94
2023/04/15 02:14:36;;;;;;;16.20;9.13;;;;;;;6.48;76.91;100699.56;4962080;28;20122;-95
2023/04/15 02:17:06;;;;;;;14.77;9.07;;;;;;;6.42;77.01;100701.06;4961421;28;20023;-95
2023/04/15 02:19:34;;;;;;;12.15;8.85;;;;;;;6.38;77.12;100709.53;4962838;28;20074;-96
2023/04/15 02:22:00;;;;;;;14.35;9.15;;;;;;;6.37;76.65;100718.16;4961907;28;20030;-94
2023/04/15 02:24:27;;;;;;;13.10;9.93;;;;;;;6.36;76.75;100716.38;4962008;28;20050;-95
2023/04/15 02:26:52;;;;;;;15.90;9.40;;;;;;;6.35;76.54;100713.72;4963244;28;20033;-95
2023/04/15 02:29:17;;;;;;;14.02;9.82;;;;;;;6.32;76.92;100730.00;4961890;28;20030;-94
2023/04/15 02:31:43;;;;;;;13.75;9.35;;;;;;;6.29;76.88;100726.44;4959203;28;20034;-95
2023/04/15 02:34:09;;;;;;;14.23;8.90;;;;;;;6.23;77.56;100719.31;4961184;28;20091;-94
2023/04/15 02:36:34;;;;;;;11.63;8.60;;;;;;;6.20;77.87;100730.44;4962139;28;20046;-94
2023/04/15 02:38:59;;;;;;;16.02;9.48;;;;;;;6.18;77.54;100736.34;4978317;28;20097;-94
2023/04/15 02:41:27;;;;;;;14.85;9.18;;;;;;;6.17;77.19;100737.16;4958952;28;20037;-95
2023/04/15 02:43:52;;;;;;;14.10;9.00;;;;;;;6.14;77.71;100729.28;4961661;28;20050;-95
2023/04/15 02:46:18;;;;;;;13.02;9.13;;;;;;;6.12;77.57;100736.13;4978449;28;20046;-94
2023/04/15 02:48:43;;;;;;;13.00;9.10;;;;;;;6.10;77.74;100738.66;4977410;28;20031;-95
2023/04/15 02:51:13;;;;;;;12.85;8.85;;;;;;;6.07;77.73;100741.97;4978124;28;20650;-94
2023/04/15 02:53:39;;;;;;;15.52;9.15;;;;;;;6.02;77.61;100740.03;4959854;28;20030;-94
2023/04/15 02:56:05;;;;;;;15.13;9.55;;;;;;;6.01;77.20;100752.09;4962024;28;20034;-95
2023/04/15 02:58:30;;;;;;;16.05;9.55;;;;;;;5.98;77.55;100743.31;4979141;28;20029;-95
2023/04/15 03:00:56;;;;;;;14.70;9.50;;;;;;;5.97;77.95;100747.63;4978793;28;20034;-94
2023/04/15 03:03:21;;;;;;;14.52;9.32;;;;;;;5.94;77.87;100742.28;4975495;28;20375;-94
2023/04/15 03:05:46;;;;;;;13.88;9.15;;;;;;;5.94;77.45;100744.88;4962591;28;20046;-94
2023/04/15 03:08:13;;;;;;;15.32;9.48;;;;;;;5.92;77.57;100743.91;4959070;28;20370;-95
2023/04/15 03:10:38;;;;;;;12.88;9.23;;;;;;;5.92;77.72;100746.50;4978360;28;20026;-95
2023/04/15 03:13:04;;;;;;;14.25;9.40;;;;;;;5.87;77.64;100742.84;4962627;28;20029;-96
2023/04/15 03:15:31;;;;;;;14.70;9.35;;;;;;;5.86;78.58;100748.84;4961061;28;20430;-95
2023/04/15 03:17:56;;;;;;;13.52;9.20;;;;;;;5.82;78.09;100746.94;4961257;28;20046;-95
2023/04/15 03:20:22;;;;;;;14.23;9.38;;;;;;;5.80;77.95;100752.06;4960241;28;20034;-95
2023/04/15 03:22:47;;;;;;;16.33;10.30;;;;;;;5.79;77.92;100747.69;4961049;28;20038;-96
2023/04/15 03:25:12;;;;;;;13.80;9.93;;;;;;;5.76;78.34;100760.50;4960194;28;20034;-95
2023/04/15 03:27:38;;;;;;;16.90;9.75;;;;;;;5.74;78.19;100755.25;4961040;28;20030;-95
2023/04/15 03:30:03;;;;;;;15.10;9.43;;;;;;;5.73;78.54;100762.97;4959689;28;20113;-94
2023/04/15 03:32:29;;;;;;;14.57;9.63;;;;;;;5.69;78.21;100759.38;4959747;28;20045;-95
2023/04/15 03:34:54;;;;;;;15.60;9.80;;;;;;;5.67;78.25;100771.34;4960598;28;20611;-95
2023/04/15 03:37:20;;;;;;;16.10;9.82;;;;;;;5.61;78.25;100767.63;4960068;28;20114;-96
2023/04/15 03:39:45;;;;;;;13.80;8.80;;;;;;;5.60;78.27;100774.47;4958653;28;20039;-95
2023/04/15 03:42:11;;;;;;;15.30;9.82;;;;;;;5.56;78.67;100775.16;4959915;28;20034;-95
2023/04/15 03:44:36;;;;;;;14.93;9.18;;;;;;;5.55;78.60;100778.59;4959965;28;20037;-96
2023/04/15 03:47:01;;;;;;;15.38;9.95;;;;;;;5.52;78.56;100773.28;4978712;28;20030;-96
2023/04/15 03:49:27;;;;;;;16.75;9.85;;;;;;;5.52;78.91;100781.03;4978302;28;20034;-95
2023/04/15 03:51:52;;;;;;;13.77;9.20;;;;;;;5.50;79.03;100780.06;4977468;28;20030;-96
2023/04/15 03:54:17;;;;;;;14.90;10.00;;;;;;;5.47;79.18;100790.28;4958933;28;20453;-95
2023/04/15 03:56:42;;;;;;;14.95;9.60;;;;;;;5.46;78.85;100792.00;4960903;28;20082;-96
2023/04/15 03:59:08;;;;;;;14.10;9.73;;;;;;;5.47;79.09;100791.16;4976901;28;20030;-95
2023/04/15 04:01:34;;;;;;;14.45;9.98;;;;;;;5.45;79.27;100802.25;4977533;28;20034;-95
2023/04/15 04:03:59;;;;;;;14.70;9.95;;;;;;;5.43;79.48;100803.88;4978755;28;20080;-95
2023/04/15 04:06:25;;;;;;;14.85;9.65;;;;;;;5.38;79.41;100794.22;4960840;28;20392;-95
2023/04/15 04:08:50;;;;;;;14.25;9.38;;;;;;;5.38;79.49;100801.97;4977418;28;20030;-96
2023/04/15 04:11:16;;;;;;;14.68;9.10;;;;;;;5.36;79.83;100811.38;4958248;28;20412;-95
2023/04/15 04:13:41;;;;;;;13.88;8.93;;;;;;;5.34;80.01;100814.69;4959554;28;20133;-94
2023/04/15 04:16:07;;;;;;;14.57;9.57;;;;;;;5.31;79.77;100820.59;4958658;28;20045;-95
2023/04/15 04:18:32;;;;;;;13.00;9.20;;;;;;;5.28;80.16;100823.06;4976070;28;20102;-94
2023/04/15 04:20:57;;;;;;;14.63;9.57;;;;;;;5.26;80.63;100819.53;4975183;28;20100;-96
2023/04/15 04:23:23;;;;;;;16.05;9.25;;;;;;;5.24;80.59;100815.97;4976661;28;20396;-95
2023/04/15 04:25:48;;;;;;;13.98;9.13;;;;;;;5.24;80.85;100828.91;4978192;28;20432;-94
2023/04/15 04:28:13;;;;;;;15.88;8.98;;;;;;;5.21;80.76;100833.94;4976205;28;20035;-95
2023/04/15 04:30:39;;;;;;;14.43;9.38;;;;;;;5.20;80.90;100834.75;4976418;28;20031;-94
2023/04/15 04:33:05;;;;;;;14.02;9.10;;;;;;;5.16;81.13;100835.44;4976686;28;20476;-94
2023/04/15 04:35:33;;;;;;;14.82;9.13;;;;;;;5.16;81.33;100841.47;4961266;28;20026;-94
2023/04/15 04:37:59;;;;;;;14.77;9.63;;;;;;;5.16;81.34;100840.59;4958403;28;20023;-95
2023/04/15 04:40:24;;;;;;;15.32;9.43;;;;;;;5.15;81.84;100849.16;4958099;28;20117;-95
2023/04/15 04:42:49;;;;;;;14.48;9.90;;;;;;;5.14;81.56;100852.53;4960856;28;20026;-94
2023/04/15 04:45:15;;;;;;;16.70;9.55;;;;;;;5.14;82.47;100850.88;4959983;28;20514;-94
2023/04/15 04:47:40;;;;;;;14.32;9.38;;;;;;;5.16;82.84;100862.13;4960512;28;20484;-94
2023/04/15 04:50:06;;;;;;;14.70;9.27;;;;;;;5.16;82.93;100863.84;4961569;28;20109;-94
2023/04/15 04:52:32;;;;;;;14.98;9.45;;;;;;;5.16;83.15;100866.44;4964519;28;20365;-94
2023/04/15 04:54:57;;;;;;;14.40;9.45;;;;;;;5.19;83.04;100863.97;4962483;28;20076;-94
2023/04/15 04:57:23;;;;;;;13.43;8.95;;;;;;;5.20;83.40;100866.63;4962276;28;20081;-94
2023/04/15 04:59:48;;;;;;;19.48;10.00;;;;;;;5.23;83.58;100871.06;4962187;28;20145;-94
2023/04/15 05:02:13;;;;;;;15.70;10.07;;;;;;;5.24;83.37;100872.81;4962977;28;20115;-94
2023/04/15 05:04:38;;;;;;;15.73;9.73;;;;;;;5.24;83.43;100880.56;4963844;28;20117;-95
2023/04/15 05:07:04;;;;;;;14.35;9.48;;;;;;;5.22;83.30;100874.44;4962177;28;20027;-95
2023/04/15 05:09:31;;;;;;;16.40;9.82;;;;;;;5.19;83.59;100876.91;4964487;28;20403;-94
2023/04/15 05:11:56;;;;;;;15.18;9.65;;;;;;;5.20;83.59;100889.00;4961235;28;20041;-95
2023/04/15 05:14:22;;;;;;;15.25;9.52;;;;;;;5.20;83.84;100889.88;4962242;28;20026;-94
2023/04/15 05:16:47;;;;;;;15.65;9.70;;;;;;;5.19;83.60;100895.84;4964017;28;20022;-95
2023/04/15 05:19:12;;;;;;;14.27;9.95;;;;;;;5.20;84.09;100897.63;4963466;28;20166;-95
2023/04/15 05:21:37;;;;;;;14.82;9.73;;;;;;;5.20;83.67;100899.34;4962412;28;20420;-94
2023/04/15 05:24:03;;;;;;;16.58;10.88;;;;;;;5.20;83.61;100910.53;4963231;28;20022;-95
2023/04/15 05:26:28;;;;;;;15.93;10.07;;;;;;;5.20;83.87;100912.25;4965142;28;20022;-94
2023/04/15 05:28:54;;;;;;;15.23;9.77;;;;;;;5.21;83.68;100917.50;4962528;28;20036;-95
2023/04/15 05:31:19;;;;;;;17.65;10.43;;;;;;;5.22;83.68;100920.94;4961889;28;20178;-94
2023/04/15 05:33:44;;;;;;;15.45;10.63;;;;;;;5.22;83.65;100918.38;4963953;28;20182;-95
2023/04/15 05:36:10;;;;;;;18.50;10.77;;;;;;;5.24;83.88;100924.47;4964298;28;20499;-95
2023/04/15 05:38:36;;;;;;;15.80;10.77;;;;;;;5.25;84.20;100934.00;4962188;28;20034;-94
2023/04/15 05:41:01;;;;;;;18.63;10.93;;;;;;;5.25;84.75;100934.00;4980342;28;20109;-95
2023/04/15 05:43:26;;;;;;;17.77;11.07;;;;;;;5.27;85.23;100937.56;4963836;28;20385;-95
2023/04/15 05:45:52;;;;;;;17.58;11.32;;;;;;;5.30;84.59;100942.88;4962861;28;20033;-95
2023/04/15 05:48:17;;;;;;;16.98;11.05;;;;;;;5.30;84.79;100950.63;4961855;28;20152;-94
2023/04/15 05:50:42;;;;;;;16.98;10.88;;;;;;;5.31;84.39;100947.19;4960558;28;20046;-94
2023/04/15 05:53:08;;;;;;;18.65;10.57;;;;;;;5.33;84.55;100958.50;4960766;28;20081;-94
2023/04/15 05:55:33;;;;;;;16.80;10.82;;;;;;;5.33;84.94;100966.25;4978645;28;20109;-95
2023/04/15 05:57:58;;;;;;;17.25;10.60;;;;;;;5.33;85.50;100965.34;4961976;28;20035;-94
2023/04/15 06:00:24;;;;;;;16.83;11.02;;;;;;;5.33;85.24;100966.25;4960689;28;20031;-95
2023/04/15 06:02:50;;;;;;;17.08;10.25;;;;;;;5.34;84.92;100969.72;4960109;28;20477;-95
2023/04/15 06:05:15;;;;;;;15.90;10.80;;;;;;;5.36;84.94;100968.97;4962565;28;20034;-95
2023/04/15 06:07:42;;;;;;;18.05;11.43;;;;;;;5.38;85.50;100982.84;4978938;28;20073;-94
2023/04/15 06:10:08;;;;;;;18.65;11.20;;;;;;;5.40;86.01;100980.31;4962198;28;20033;-94
2023/04/15 06:12:34;;;;;;;16.63;10.75;;;;;;;5.42;86.01;100982.97;4977778;28;20038;-95
2023/04/15 06:14:59;;;;;;;22.73;11.10;;;;;;;5.44;86.46;100989.13;4958873;28;20026;-95
2023/04/15 06:17:25;;;;;;;16.38;10.82;;;;;;;5.49;86.42;100987.63;4962585;28;20114;-95
2023/04/15 06:19:54;;;;;;;15.88;10.52;;;;;;;5.54;87.15;100993.91;4961980;28;20480;-95
2023/04/15 06:22:22;;;;;;;19.65;11.52;;;;;;;5.61;87.10;100995.97;4960345;28;20037;-94
2023/04/15 06:24:50;;;;;;;18.05;11.02;;;;;;;5.67;86.96;101000.53;4963745;28;20023;-95
2023/04/15 06:27:16;;;;;;;18.17;11.50;;;;;;;5.75;87.29;101006.94;4977686;28;20022;-95
2023/04/15 06:29:41;;;;;;;16.95;10.93;;;;;;;5.85;87.75;101009.13;4975938;28;20038;-95
2023/04/15 06:32:06;;;;;;;16.58;10.88;;;;;;;5.97;88.63;101011.41;4962270;28;20033;-95
2023/04/15 06:34:32;;;;;;;18.38;11.52;;;;;;;6.07;88.83;101011.00;4960775;28;20034;-95
2023/04/15 06:36:57;;;;;;;18.23;12.13;;;;;;;6.20;88.14;101020.19;4961214;28;20034;-95
2023/04/15 06:39:22;;;;;;;17.63;11.20;;;;;;;6.34;88.81;101025.97;4977390;28;20033;-95
2023/04/15 06:41:48;;;;;;;17.50;11.43;;;;;;;6.44;89.09;101030.75;4961529;28;20034;-94
2023/04/15 06:44:13;;;;;;;15.45;10.60;;;;;;;6.60;89.50;101034.88;4960812;28;20030;-95
2023/04/15 06:46:38;;;;;;;16.02;10.82;;;;;;;6.75;89.27;101047.59;4979517;28;20169;-94
2023/04/15 06:49:04;;;;;;;15.40;10.52;;;;;;;6.89;88.16;101045.56;4960826;28;20114;-95
2023/04/15 06:51:30;;;;;;;16.85;11.18;;;;;;;7.06;87.64;101051.44;4978692;28;20096;-95
2023/04/15 06:53:56;;;;;;;15.63;10.75;;;;;;;7.21;88.25;101045.13;4959947;28;20070;-95
2023/04/15 06:56:22;;;;;;;16.70;10.85;;;;;;;7.34;87.23;101049.97;4960409;28;20023;-94
2023/04/15 06:58:47;;;;;;;16.38;10.50;;;;;;;7.49;86.87;101058.34;4962017;28;20030;-95
2023/04/15 07:01:13;;;;;;;16.00;10.32;;;;;;;7.63;86.44;101055.41;4960979;28;20507;-95
2023/04/15 07:03:38;;;;;;;16.73;11.35;;;;;;;7.78;86.30;101060.34;4960846;28;20027;-95
2023/04/15 07:06:05;;;;;;;15.93;10.77;;;;;;;7.94;85.94;101064.41;4960160;28;20080;-94
2023/04/15 07:08:32;;;;;;;15.85;10.48;;;;;;;8.05;84.63;101068.25;4960006;28;20031;-95
2023/04/15 07:10:58;;;;;;;15.00;10.40;;;;;;;8.19;85.44;101064.44;4977389;28;20034;-94
2023/04/15 07:13:24;;;;;;;14.68;10.32;;;;;;;8.33;85.15;101082.28;4976275;28;20064;-94
2023/04/15 07:15:49;;;;;;;16.58;11.15;;;;;;;8.42;85.58;101077.41;4960670;28;20038;-94
2023/04/15 07:18:14;;;;;;;15.32;10.75;;;;;;;8.55;85.97;101078.75;4977213;28;20373;-95
2023/04/15 07:20:40;;;;;;;16.30;11.13;;;;;;;8.68;85.63;101074.88;4978831;28;20027;-95
2023/04/15 07:23:05;;;;;;;17.70;11.35;;;;;;;8.82;84.57;101083.13;4961614;28;20037;-95
2023/04/15 07:25:31;;;;;;;20.70;11.73;;;;;;;8.96;85.41;101086.22;4960500;28;20019;-94
2023/04/15 07:27:57;;;;;;;24.38;11.90;;;;;;;9.06;83.73;101088.31;4960542;28;20026;-94
2023/04/15 07:30:22;;;;;;;17.27;11.98;;;;;;;9.18;82.93;101093.94;4978491;28;20570;-95
2023/04/15 07:32:47;;;;;;;17.70;11.57;;;;;;;9.31;83.16;101104.72;4977972;28;20046;-95
2023/04/15 07:35:13;;;;;;;18.60;12.02;;;;;;;9.39;82.42;101104.13;4960365;28;20084;-95
2023/04/15 07:37:38;;;;;;;15.20;10.52;;;;;;;9.48;80.91;101100.94;4959829;28;20042;-95
2023/04/15 07:40:06;;;;;;;19.05;11.60;;;;;;;9.62;81.02;101104.00;4977789;28;20042;-96
2023/04/15 07:42:32;;;;;;;15.40;9.77;;;;;;;9.73;80.28;101106.91;4962876;28;20034;-96
2023/04/15 07:44:58;;;;;;;14.63;10.43;;;;;;;9.84;80.56;101105.53;4960022;28;20030;-95
2023/04/15 07:47:23;;;;;;;14.10;10.10;;;;;;;9.94;78.25;101113.66;4977573;28;20383;-96
2023/04/15 07:49:50;;;;;;;14.20;9.88;;;;;;;10.02;78.14;101114.75;4959872;28;20061;-94
2023/04/15 07:52:16;;;;;;;15.80;10.00;;;;;;;10.12;78.63;101114.19;4960506;28;20054;-95
2023/04/15 07:54:41;;;;;;;14.55;9.95;;;;;;;10.22;78.82;101115.34;4960802;28;20554;-95
2023/04/15 07:57:07;;;;;;;14.27;9.82;;;;;;;10.32;78.02;101119.09;4960283;28;20119;-95
2023/04/15 07:59:32;;;;;;;13.98;10.05;;;;;;;10.44;77.75;101124.69;4959847;28;20582;-95
2023/04/15 08:01:58;;;;;;;12.98;9.10;;;;;;;10.55;77.40;101138.91;4961093;28;20093;-95
2023/04/15 08:04:23;;;;;;;13.95;9.00;;;;;;;10.64;76.79;101140.00;4960095;28;20125;-95
2023/04/15 08:06:49;;;;;;;14.50;9.23;;;;;;;10.71;77.33;101140.22;4975463;28;20058;-95
2023/04/15 08:09:15;;;;;;;12.85;9.20;;;;;;;10.82;76.61;101147.44;4960025;28;20273;-95
2023/04/15 08:11:40;;;;;;;13.30;9.05;;;;;;;10.87;74.75;101146.72;4960130;28;20018;-95
2023/04/15 08:14:06;;;;;;;13.55;8.25;;;;;;;11.03;76.79;101150.63;4959874;28;20080;-95
2023/04/15 08:16:31;;;;;;;12.82;8.65;;;;;;;11.24;75.75;101152.03;4959787;28;20034;-95
2023/04/15 08:18:57;;;;;;;13.32;8.43;;;;;;;11.31;75.08;101154.84;4957975;28;20428;-96
2023/04/15 08:21:23;;;;;;;13.45;8.57;;;;;;;11.35;73.05;101161.03;4959746;28;20240;-96
2023/04/15 08:23:51;;;;;;;13.13;8.95;;;;;;;11.37;73.83;101166.28;4963888;28;20025;-95
2023/04/15 08:26:17;;;;;;;13.48;8.95;;;;;;;11.49;74.38;101174.44;4962940;28;20046;-95
2023/04/15 08:28:43;;;;;;;12.10;8.30;;;;;;;11.66;71.14;101173.13;4981203;28;20022;-95
2023/04/15 08:31:09;;;;;;;13.55;8.15;;;;;;;11.86;72.71;101179.66;4982014;28;20026;-95
2023/04/15 08:33:34;;;;;;;12.57;8.05;;;;;;;11.97;72.71;101180.81;4964726;28;20018;-96
2023/04/15 08:36:00;;;;;;;12.43;8.30;;;;;;;12.06;71.38;101169.72;4963323;28;20113;-95
2023/04/15 08:38:25;;;;;;;11.05;7.28;;;;;;;12.27;70.88;101174.53;4980389;28;20109;-95
2023/04/15 08:40:51;;;;;;;9.15;6.13;;;;;;;12.53;69.37;101185.56;4962871;28;20160;-96
2023/04/15 08:43:27;;;;;;;9.13;6.13;;;;;;;12.71;67.15;101190.25;4962337;28;20066;-95
2023/04/15 08:45:53;;;;;;;10.02;5.80;;;;;;;12.79;65.69;101191.31;4980157;28;20503;-95
2023/04/15 08:48:21;;;;;;;10.32;5.85;;;;;;;12.85;66.62;101201.03;4963460;28;20254;-95
2023/04/15 08:50:47;;;;;;;9.82;5.78;;;;;;;12.92;64.89;101200.28;4963087;28;20026;-95
2023/04/15 08:53:14;;;;;;;9.00;5.88;;;;;;;13.00;66.38;101210.88;4964069;28;20030;-95
2023/04/15 08:55:45;;;;;;;9.27;5.95;;;;;;;13.08;64.67;101216.25;4963708;28;20133;-96
2023/04/15 08:58:12;;;;;;;10.68;5.93;;;;;;;13.23;63.75;101232.25;4965285;28;20109;-96
2023/04/15 09:00:39;;;;;;;9.23;5.40;;;;;;;13.35;61.93;101229.03;4964120;28;20027;-94
2023/04/15 09:03:08;;;;;;;8.43;5.05;;;;;;;13.37;63.20;101230.81;4962607;28;20027;-95
2023/04/15 09:05:37;;;;;;;9.70;5.25;;;;;;;13.41;60.86;101239.59;4978618;28;20046;-95
2023/04/15 09:08:04;;;;;;;9.93;5.07;;;;;;;13.51;61.80;101232.78;4962122;28;20105;-95
2023/04/15 09:10:30;;;;;;;9.30;5.47;;;;;;;13.60;62.59;101243.44;4962593;28;20022;-95
2023/04/15 09:12:56;;;;;;;9.18;5.25;;;;;;;13.66;60.27;101242.69;4961810;28;20027;-96
2023/04/15 09:15:26;;;;;;;10.82;5.85;;;;;;;13.67;62.57;101250.56;4962184;28;20081;-96
2023/04/15 09:17:52;;;;;;;8.52;5.82;;;;;;;13.72;60.80;101256.75;4964210;28;20046;-95
2023/04/15 09:20:20;;;;;;;9.65;6.00;;;;;;;13.83;63.48;101261.28;4963644;28;20041;-96
2023/04/15 09:22:48;;;;;;;8.73;6.05;;;;;;;13.89;61.86;101261.41;4962764;28;20134;-96
2023/04/15 09:25:13;;;;;;;8.82;5.68;;;;;;;13.93;61.51;101264.94;4963117;28;20403;-96
2023/04/15 09:27:47;;;;;;;8.23;4.93;;;;;;;13.92;60.09;101277.16;4980189;28;20097;-96
2023/04/15 09:30:13;;;;;;;7.75;4.90;;;;;;;13.95;58.43;101271.06;4963875;28;20292;-95
2023/04/15 09:32:50;;;;;;;8.32;5.13;;;;;;;14.01;61.07;101281.69;4963585;28;20022;-95
2023/04/15 09:35:16;;;;;;;9.35;5.70;;;;;;;14.03;62.47;101280.84;4960370;28;20022;-95
2023/04/15 09:37:41;;;;;;;9.77;5.60;;;;;;;13.94;59.78;101277.19;4962998;28;20030;-95
2023/04/15 09:40:08;;;;;;;9.32;5.05;;;;;;;13.78;59.51;101283.91;4963310;28;20037;-95
2023/04/15 09:42:34;;;;;;;10.60;5.65;;;;;;;13.63;60.20;101282.78;4961937;28;20113;-96
2023/04/15 09:45:12;;;;;;;8.40;5.43;;;;;;;13.67;65.06;101294.16;4961681;28;20121;-96
2023/04/15 09:47:38;;;;;;;9.95;5.85;;;;;;;13.85;60.14;101288.41;4962271;28;20036;-95
2023/04/15 09:50:03;;;;;;;9.45;5.50;;;;;;;14.00;58.99;101288.63;4961068;28;20108;-96
2023/04/15 09:52:29;;;;;;;8.00;4.57;;;;;;;14.06;58.46;101290.47;4962839;28;20388;-95
2023/04/15 09:54:57;;;;;;;8.27;4.55;;;;;;;14.12;58.42;101289.69;4960706;28;20053;-96
2023/04/15 09:57:23;;;;;;;7.38;4.95;;;;;;;14.21;61.12;101288.13;4961961;28;20019;-96
2023/04/15 09:59:49;;;;;;;8.55;5.20;;;;;;;14.32;61.51;101301.38;4959030;28;20080;-95
2023/04/15 10:02:17;;;;;;;8.05;5.40;;;;;;;14.38;60.41;101296.25;4962091;28;20110;-96
2023/04/15 10:04:43;;;;;;;8.32;5.30;;;;;;;14.43;61.20;101299.81;4962317;28;20037;-95
2023/04/15 10:07:10;;;;;;;7.25;5.10;;;;;;;14.54;59.00;101299.97;4962957;28;20018;-96
2023/04/15 10:09:37;;;;;;;9.52;5.60;;;;;;;14.72;59.90;101306.38;4961269;28;20030;-96
2023/04/15 10:12:04;;;;;;;7.20;4.82;;;;;;;14.68;58.76;101301.94;4961892;28;20049;-96
2023/04/15 10:14:40;;;;;;;9.40;5.10;;;;;;;14.58;60.03;101301.78;4962103;28;20033;-95
2023/04/15 10:17:07;;;;;;;7.60;4.78;;;;;;;14.65;60.54;101308.03;4962952;28;20058;-96
2023/04/15 10:19:36;;;;;;;7.43;5.00;;;;;;;14.78;59.20;101317.81;4961279;28;20074;-95
2023/04/15 10:22:02;;;;;;;7.60;5.03;;;;;;;14.82;57.00;101310.00;4959670;28;20026;-96
2023/04/15 10:24:28;;;;;;;8.65;5.10;;;;;;;14.86;60.42;101311.78;4961464;28;20783;-95
2023/04/15 10:26:56;;;;;;;8.82;5.00;;;;;;;15.03;60.52;101307.66;4979083;28;20497;-96
2023/04/15 10:29:24;;;;;;;7.60;4.78;;;;;;;15.17;59.91;101317.47;4978584;28;20033;-96
2023/04/15 10:31:50;;;;;;;8.70;5.37;;;;;;;15.17;56.02;101310.44;4962189;28;20033;-96
2023/04/15 10:34:17;;;;;;;9.95;4.45;;;;;;;15.11;58.06;101324.38;4963129;28;20512;-96
2023/04/15 10:36:42;;;;;;;7.82;4.63;;;;;;;15.06;56.14;101327.81;4978504;28;20059;-96
2023/04/15 10:39:33;;;;;;;7.93;4.20;;;;;;;15.09;57.80;101325.22;4962522;28;20086;-96
2023/04/15 10:42:11;;;;;;;7.03;3.92;;;;;;;15.22;56.90;101331.50;4978409;28;20039;-96
2023/04/15 10:44:38;;;;;;;6.22;3.40;;;;;;;15.34;56.06;101326.41;4979420;28;20523;-96
2023/04/15 10:47:11;;;;;;;5.70;3.50;;;;;;;15.38;56.32;101330.84;4963054;28;20026;-96
2023/04/15 10:49:42;;;;;;;6.55;3.30;;;;;;;15.44;55.15;101330.03;4959126;28;21063;-96
2023/04/15 10:52:07;;;;;;;4.72;3.30;;;;;;;15.55;54.00;101330.13;4960538;28;20058;-96
2023/04/15 10:54:35;;;;;;;4.82;2.90;;;;;;;15.70;55.70;101327.69;4962172;28;20445;-96
2023/04/15 10:57:00;;;;;;;14.90;4.10;;;;;;;15.75;53.62;101328.59;4958697;28;20031;-96
2023/04/15 10:59:28;;;;;;;8.02;4.28;;;;;;;15.77;53.46;101336.50;4962008;28;20030;-96
2023/04/15 11:02:02;;;;;;;63.07;8.23;;;;;;;15.85;54.73;101337.50;4960726;28;20023;-96
2023/04/15 11:04:50;;;;;;;11.43;3.95;;;;;;;15.87;54.73;101332.25;4959967;28;20030;-96
2023/04/15 11:07:55;;;;;;;5.47;3.85;;;;;;;15.91;53.92;101341.94;4960799;28;20034;-96
2023/04/15 11:10:30;;;;;;;6.75;3.83;;;;;;;15.99;55.46;101333.25;4955474;28;20038;-96
2023/04/15 11:13:00;;;;;;;6.75;3.95;;;;;;;16.06;52.61;101342.06;4960255;28;20030;-95
2023/04/15 11:15:37;;;;;;;6.25;4.20;;;;;;;15.98;52.76;101342.00;4960717;28;20023;-96
2023/04/15 11:18:17;;;;;;;6.80;4.38;;;;;;;15.78;53.92;101346.13;4960087;28;20054;-96